createdAt,value
2018-12-19T00:00:39.690Z,84.97
2018-12-19T00:03:08.906Z,85.06
2018-12-19T00:05:38.142Z,85.54
2018-12-19T00:08:07.462Z,84.81
2018-12-19T00:10:36.664Z,85.61
2018-12-19T00:13:05.902Z,85.12
2018-12-19T00:15:35.022Z,85.26
2018-12-19T00:18:04.311Z,85.42
2018-12-19T00:20:33.559Z,85.71
2018-12-19T00:23:02.886Z,85.79
2018-12-19T00:25:32.133Z,85.70
2018-12-19T00:28:01.354Z,85.55
2018-12-19T00:30:30.463Z,86.14
2018-12-19T00:32:59.635Z,85.92
2018-12-19T00:35:28.727Z,85.68
2018-12-19T00:37:57.855Z,85.64
2018-12-19T00:40:27.044Z,85.55
2018-12-19T00:42:56.151Z,85.55
2018-12-19T00:45:25.455Z,86.50
2018-12-19T00:47:54.707Z,86.14
2018-12-19T00:50:23.921Z,85.66
2018-12-19T00:52:53.203Z,86.20
2018-12-19T00:55:22.613Z,85.78
2018-12-19T00:57:51.794Z,86.11
2018-12-19T01:00:20.913Z,86.41
2018-12-19T01:02:50.228Z,86.47
2018-12-19T01:05:19.479Z,85.65
2018-12-19T01:07:48.623Z,85.16
2018-12-19T01:10:17.895Z,85.40
2018-12-19T01:12:47.763Z,85.79
2018-12-19T01:15:16.984Z,85.98
2018-12-19T01:17:46.091Z,85.81
2018-12-19T01:20:15.226Z,86.05
2018-12-19T01:22:45.057Z,86.62
2018-12-19T01:25:14.287Z,86.78
2018-12-19T01:27:43.418Z,86.13
2018-12-19T01:30:12.631Z,85.99
2018-12-19T01:32:42.107Z,85.68
2018-12-19T01:35:11.449Z,85.47
2018-12-19T01:37:40.825Z,86.55
2018-12-19T01:40:10.081Z,86.31
2018-12-19T01:42:39.731Z,86.64
2018-12-19T01:45:09.591Z,86.33
2018-12-19T01:47:39.447Z,86.49
2018-12-19T01:50:08.990Z,86.33
2018-12-19T01:52:38.135Z,86.70
2018-12-19T01:55:07.447Z,86.95
2018-12-19T01:57:36.570Z,86.67
2018-12-19T02:00:06.083Z,85.92
2018-12-19T02:02:35.503Z,85.74
2018-12-19T02:05:04.850Z,86.39
2018-12-19T02:07:33.991Z,85.77
2018-12-19T02:10:03.180Z,86.22
2018-12-19T02:12:32.475Z,86.27
2018-12-19T02:15:01.629Z,85.51
2018-12-19T02:17:31.175Z,86.41
2018-12-19T02:20:00.344Z,86.22
2018-12-19T02:22:29.455Z,86.33
2018-12-19T02:24:58.624Z,86.06
2018-12-19T02:27:28.426Z,84.98
2018-12-19T02:29:57.898Z,85.09
2018-12-19T02:32:27.036Z,84.81
2018-12-19T02:34:56.782Z,85.34
2018-12-19T02:37:25.910Z,84.92
2018-12-19T02:39:55.004Z,85.46
2018-12-19T02:42:24.170Z,84.99
2018-12-19T02:44:53.384Z,84.95
2018-12-19T02:47:22.546Z,85.64
2018-12-19T02:49:51.718Z,84.73
2018-12-19T02:52:20.841Z,85.77
2018-12-19T02:54:49.958Z,85.26
2018-12-19T02:57:19.153Z,85.02
2018-12-19T02:59:48.261Z,85.10
2018-12-19T03:02:17.420Z,85.87
2018-12-19T03:04:46.651Z,86.04
2018-12-19T03:07:15.773Z,85.29
2018-12-19T03:09:44.916Z,84.78
2018-12-19T03:12:14.006Z,84.53
2018-12-19T03:14:43.127Z,84.05
2018-12-19T03:17:12.451Z,84.56
2018-12-19T03:19:41.717Z,83.72
2018-12-19T03:22:10.836Z,83.97
2018-12-19T03:24:40.840Z,84.22
2018-12-19T03:27:09.951Z,84.26
2018-12-19T03:29:40.108Z,84.47
2018-12-19T03:32:09.232Z,84.57
2018-12-19T03:34:38.427Z,84.33
2018-12-19T03:37:07.542Z,84.19
2018-12-19T03:39:36.748Z,84.89
2018-12-19T03:42:05.846Z,85.35
2018-12-19T03:44:35.010Z,84.81
2018-12-19T03:47:04.139Z,85.20
2018-12-19T03:49:33.326Z,84.92
2018-12-19T03:52:02.634Z,84.30
2018-12-19T03:54:32.042Z,84.35
2018-12-19T03:57:01.414Z,84.75
2018-12-19T03:59:30.826Z,85.15
2018-12-19T04:01:59.930Z,86.12
2018-12-19T04:04:29.105Z,86.36
2018-12-19T04:06:58.510Z,85.25
2018-12-19T04:09:27.618Z,84.99
2018-12-19T04:11:56.722Z,84.76
2018-12-19T04:14:26.207Z,85.15
2018-12-19T04:16:55.303Z,84.32
2018-12-19T04:19:24.513Z,84.03
2018-12-19T04:21:53.794Z,84.77
2018-12-19T04:24:22.889Z,85.03
2018-12-19T04:26:52.113Z,84.65
2018-12-19T04:29:21.848Z,83.48
2018-12-19T04:31:51.132Z,84.10
2018-12-19T04:34:20.518Z,84.86
2018-12-19T04:36:49.646Z,85.25
2018-12-19T04:39:19.447Z,85.18
2018-12-19T04:41:48.720Z,84.73
2018-12-19T04:44:17.849Z,84.31
2018-12-19T04:46:46.966Z,84.75
2018-12-19T04:49:16.360Z,84.36
2018-12-19T04:51:45.561Z,83.83
2018-12-19T04:54:14.717Z,83.80
2018-12-19T04:56:43.817Z,84.14
2018-12-19T04:59:13.019Z,83.53
2018-12-19T05:01:42.195Z,83.50
2018-12-19T05:04:11.295Z,83.50
2018-12-19T05:06:40.404Z,83.11
2018-12-19T05:09:09.532Z,83.93
2018-12-19T05:11:38.783Z,83.37
2018-12-19T05:14:08.029Z,83.76
2018-12-19T05:16:37.175Z,83.47
2018-12-19T05:19:06.287Z,82.86
2018-12-19T05:21:35.606Z,82.48
2018-12-19T05:24:04.970Z,82.75
2018-12-19T05:26:34.194Z,82.44
2018-12-19T05:29:03.523Z,82.57
2018-12-19T05:31:32.871Z,82.53
2018-12-19T05:34:02.087Z,82.19
2018-12-19T05:36:31.183Z,82.52
2018-12-19T05:39:00.564Z,81.78
2018-12-19T05:41:30.625Z,82.04
2018-12-19T05:43:59.750Z,83.29
2018-12-19T05:46:28.904Z,82.89
2018-12-19T05:48:58.114Z,82.62
2018-12-19T05:51:27.472Z,82.49
2018-12-19T05:53:56.660Z,82.64
2018-12-19T05:56:25.968Z,82.46
2018-12-19T05:58:55.330Z,82.56
2018-12-19T06:01:24.498Z,82.21
2018-12-19T06:03:53.772Z,82.78
2018-12-19T06:06:23.013Z,82.19
2018-12-19T06:08:52.700Z,82.62
2018-12-19T06:11:21.901Z,83.21
2018-12-19T06:13:51.443Z,82.64
2018-12-19T06:16:20.777Z,82.52
2018-12-19T06:18:50.095Z,82.38
2018-12-19T06:21:19.405Z,82.25
2018-12-19T06:23:48.595Z,82.06
2018-12-19T06:26:17.784Z,81.98
2018-12-19T06:28:46.904Z,81.22
2018-12-19T06:31:16.179Z,81.92
2018-12-19T06:33:45.587Z,81.41
2018-12-19T06:36:15.011Z,80.87
2018-12-19T06:38:44.277Z,81.25
2018-12-19T06:41:13.409Z,80.46
2018-12-19T06:43:42.670Z,80.50
2018-12-19T06:46:11.924Z,81.06
2018-12-19T06:48:41.115Z,80.86
2018-12-19T06:51:10.275Z,80.70
2018-12-19T06:53:39.391Z,80.46
2018-12-19T06:56:08.622Z,80.14
2018-12-19T06:58:37.786Z,81.04
2018-12-19T07:01:07.082Z,81.11
2018-12-19T07:03:36.298Z,80.59
2018-12-19T07:06:05.418Z,80.10
2018-12-19T07:08:34.670Z,79.68
2018-12-19T07:11:04.031Z,79.71
2018-12-19T07:13:33.288Z,79.37
2018-12-19T07:16:02.477Z,79.85
2018-12-19T07:18:31.642Z,79.68
2018-12-19T07:21:01.209Z,79.54
2018-12-19T07:23:30.344Z,79.50
2018-12-19T07:25:59.751Z,79.62
2018-12-19T07:28:28.862Z,78.53
2018-12-19T07:30:58.039Z,78.13
2018-12-19T07:33:27.288Z,77.95
2018-12-19T07:35:56.566Z,78.35
2018-12-19T07:38:25.742Z,77.62
2018-12-19T07:40:54.894Z,76.56
2018-12-19T07:43:24.162Z,76.80
2018-12-19T07:45:53.455Z,76.53
2018-12-19T07:48:22.991Z,76.86
2018-12-19T07:50:52.235Z,77.08
2018-12-19T07:53:21.637Z,76.34
2018-12-19T07:55:51.077Z,76.42
2018-12-19T07:58:20.246Z,77.37
2018-12-19T08:00:49.345Z,77.36
2018-12-19T08:03:18.533Z,76.56
2018-12-19T08:05:47.649Z,75.28
2018-12-19T08:08:16.744Z,75.14
2018-12-19T08:10:52.004Z,75.52
2018-12-19T08:13:17.231Z,75.66
2018-12-19T08:15:46.517Z,75.63
2018-12-19T08:18:15.695Z,74.92
2018-12-19T08:20:44.844Z,75.55
2018-12-19T08:23:14.055Z,74.73
2018-12-19T08:25:43.287Z,74.45
2018-12-19T08:28:12.491Z,74.73
2018-12-19T08:30:41.675Z,74.32
2018-12-19T08:33:11.411Z,73.81
2018-12-19T08:35:40.547Z,73.24
2018-12-19T08:38:10.819Z,72.95
2018-12-19T08:40:40.181Z,74.06
2018-12-19T08:43:09.375Z,73.78
2018-12-19T08:45:39.059Z,73.34
2018-12-19T08:48:08.227Z,73.37
2018-12-19T08:50:37.445Z,72.13
2018-12-19T08:53:06.652Z,72.34
2018-12-19T08:55:35.791Z,72.20
2018-12-19T08:58:05.057Z,72.11
2018-12-19T09:00:34.186Z,71.39
2018-12-19T09:03:03.285Z,71.44
2018-12-19T09:05:32.374Z,70.97
2018-12-19T09:08:01.558Z,70.86
2018-12-19T09:10:30.692Z,71.02
2018-12-19T09:12:59.783Z,70.62
2018-12-19T09:15:34.311Z,70.43
2018-12-19T09:18:03.465Z,70.43
2018-12-19T09:20:33.878Z,69.89
2018-12-19T09:23:03.158Z,69.50
2018-12-19T09:25:32.357Z,68.96
2018-12-19T09:28:02.459Z,68.47
2018-12-19T09:30:31.630Z,68.18
2018-12-19T09:33:00.725Z,68.05
2018-12-19T09:35:29.831Z,68.05
2018-12-19T09:37:58.975Z,69.00
2018-12-19T09:40:28.096Z,68.78
2018-12-19T09:42:57.179Z,68.92
2018-12-19T09:45:26.286Z,69.22
2018-12-19T09:47:55.398Z,69.42
2018-12-19T09:50:24.501Z,69.16
2018-12-19T09:52:53.612Z,69.95
2018-12-19T09:55:22.751Z,69.45
2018-12-19T09:57:51.877Z,69.30
2018-12-19T10:00:26.390Z,69.57
2018-12-19T10:02:55.904Z,72.49
2018-12-19T10:05:25.386Z,71.07
2018-12-19T10:07:54.490Z,69.18
2018-12-19T10:10:23.720Z,68.68
2018-12-19T10:12:52.896Z,67.65
2018-12-19T10:15:21.985Z,66.53
2018-12-19T10:17:51.094Z,66.40
2018-12-19T10:20:20.240Z,66.45
2018-12-19T10:22:51.659Z,67.27
2018-12-19T10:25:20.960Z,65.43
2018-12-19T10:27:50.126Z,65.51
2018-12-19T10:30:19.260Z,65.91
2018-12-19T10:32:52.685Z,65.54
2018-12-19T10:35:21.875Z,65.84
2018-12-19T10:37:51.433Z,65.27
2018-12-19T10:40:20.739Z,66.53
2018-12-19T10:42:49.934Z,66.45
2018-12-19T10:45:19.079Z,66.49
2018-12-19T10:47:48.172Z,66.21
2018-12-19T10:50:17.292Z,66.41
2018-12-19T10:52:46.492Z,65.47
2018-12-19T10:55:15.605Z,65.43
2018-12-19T10:57:44.711Z,65.37
2018-12-19T11:00:19.312Z,65.60
2018-12-19T11:02:48.385Z,65.93
2018-12-19T11:05:17.514Z,66.70
2018-12-19T11:07:46.603Z,66.72
2018-12-19T11:10:15.825Z,67.18
2018-12-19T11:12:44.921Z,66.71
2018-12-19T11:15:14.020Z,67.23
2018-12-19T11:17:43.213Z,67.97
2018-12-19T11:20:12.311Z,67.40
2018-12-19T11:22:41.406Z,66.75
2018-12-19T11:25:10.535Z,67.34
2018-12-19T11:27:39.884Z,67.99
2018-12-19T11:30:09.569Z,67.43
2018-12-19T11:32:38.734Z,67.49
2018-12-19T11:35:08.411Z,67.75
2018-12-19T11:37:37.603Z,67.36
2018-12-19T11:40:08.425Z,67.13
2018-12-19T11:42:37.535Z,66.69
2018-12-19T11:45:06.791Z,66.23
2018-12-19T11:47:35.915Z,66.51
2018-12-19T11:50:06.537Z,65.78
2018-12-19T11:52:35.663Z,66.62
2018-12-19T11:55:05.568Z,65.74
2018-12-19T11:57:34.839Z,66.23
2018-12-19T12:00:04.830Z,66.36
2018-12-19T12:02:33.976Z,66.66
2018-12-19T12:05:03.270Z,66.37
2018-12-19T12:07:32.449Z,66.29
2018-12-19T12:10:01.584Z,65.41
2018-12-19T12:12:30.785Z,65.18
2018-12-19T12:14:59.955Z,65.38
2018-12-19T12:17:29.091Z,65.05
2018-12-19T12:19:58.192Z,64.34
2018-12-19T12:22:27.407Z,64.75
2018-12-19T12:24:56.548Z,64.28
2018-12-19T12:27:25.849Z,64.47
2018-12-19T12:29:54.947Z,65.10
2018-12-19T12:32:24.047Z,64.98
2018-12-19T12:34:53.128Z,64.91
2018-12-19T12:37:22.228Z,64.23
2018-12-19T12:39:51.339Z,64.50
2018-12-19T12:42:20.419Z,64.34
2018-12-19T12:44:49.887Z,64.41
2018-12-19T12:47:18.993Z,64.93
2018-12-19T12:49:48.168Z,64.65
2018-12-19T12:52:17.339Z,64.30
2018-12-19T12:54:46.462Z,65.14
2018-12-19T12:57:15.575Z,64.60
2018-12-19T12:59:44.658Z,65.09
2018-12-19T13:02:13.890Z,65.58
2018-12-19T13:04:43.019Z,65.64
2018-12-19T13:07:12.180Z,65.87
2018-12-19T13:09:41.298Z,65.46
2018-12-19T13:12:10.402Z,65.45
2018-12-19T13:14:39.590Z,65.25
2018-12-19T13:17:08.706Z,65.08
2018-12-19T13:19:37.791Z,65.39
2018-12-19T13:22:06.984Z,66.13
2018-12-19T13:24:36.134Z,65.82
2018-12-19T13:27:05.214Z,65.90
2018-12-19T13:29:34.399Z,66.46
2018-12-19T13:32:03.621Z,66.89
2018-12-19T13:34:32.712Z,66.59
2018-12-19T13:37:01.810Z,67.02
2018-12-19T13:39:31.129Z,66.67
2018-12-19T13:42:05.517Z,67.33
2018-12-19T13:44:31.321Z,67.20
2018-12-19T13:47:00.509Z,67.22
2018-12-19T13:49:29.609Z,67.45
2018-12-19T13:51:58.699Z,67.73
2018-12-19T13:54:27.823Z,67.04
2018-12-19T13:56:57.133Z,68.01
2018-12-19T13:59:26.223Z,68.04
2018-12-19T14:01:55.343Z,68.36
2018-12-19T14:04:24.449Z,67.49
2018-12-19T14:06:53.563Z,68.18
2018-12-19T14:09:22.681Z,68.37
2018-12-19T14:11:51.783Z,67.96
2018-12-19T14:14:20.931Z,68.65
2018-12-19T14:16:50.077Z,67.58
2018-12-19T14:19:19.269Z,67.61
2018-12-19T14:21:48.343Z,68.50
2018-12-19T14:24:17.604Z,68.43
2018-12-19T14:26:46.735Z,68.67
2018-12-19T14:29:15.839Z,68.47
2018-12-19T14:31:44.949Z,68.64
2018-12-19T14:34:14.014Z,68.67
2018-12-19T14:36:43.262Z,69.25
2018-12-19T14:39:12.632Z,69.08
2018-12-19T14:41:42.134Z,68.77
2018-12-19T14:44:11.247Z,68.77
2018-12-19T14:46:40.358Z,68.97
2018-12-19T14:49:13.997Z,69.07
2018-12-19T14:51:40.865Z,68.78
2018-12-19T14:54:10.387Z,67.94
2018-12-19T14:56:39.470Z,68.10
2018-12-19T14:59:08.794Z,68.15
2018-12-19T15:01:37.930Z,68.95
2018-12-19T15:04:07.018Z,69.18
2018-12-19T15:06:36.882Z,69.75
2018-12-19T15:09:07.406Z,69.95
2018-12-19T15:11:36.560Z,69.58
2018-12-19T15:14:05.750Z,71.01
2018-12-19T15:16:34.882Z,72.78
2018-12-19T15:19:04.222Z,71.80
2018-12-19T15:21:33.450Z,72.70
2018-12-19T15:24:02.538Z,75.54
2018-12-19T15:26:31.629Z,76.11
2018-12-19T15:29:00.909Z,76.87
2018-12-19T15:31:30.097Z,77.40
2018-12-19T15:33:59.179Z,78.55
2018-12-19T15:36:28.743Z,77.70
2018-12-19T15:38:57.799Z,78.04
2018-12-19T15:41:26.891Z,78.92
2018-12-19T15:43:56.007Z,79.71
2018-12-19T15:46:25.120Z,79.14
2018-12-19T15:48:54.204Z,78.88
2018-12-19T15:51:23.431Z,78.17
2018-12-19T15:53:52.547Z,77.71
2018-12-19T15:56:21.811Z,78.49
2018-12-19T15:58:50.927Z,78.37
2018-12-19T16:01:26.721Z,78.66
2018-12-19T16:03:56.574Z,77.96
2018-12-19T16:06:25.675Z,78.31
2018-12-19T16:08:54.768Z,79.58
2018-12-19T16:11:23.889Z,80.62
2018-12-19T16:13:52.994Z,78.90
2018-12-19T16:16:22.089Z,78.55
2018-12-19T16:18:51.173Z,78.00
2018-12-19T16:21:20.298Z,77.74
2018-12-19T16:23:49.399Z,77.69
2018-12-19T16:26:18.490Z,77.87
2018-12-19T16:28:47.568Z,77.26
2018-12-19T16:31:16.787Z,77.45
2018-12-19T16:33:45.937Z,76.73
2018-12-19T16:36:15.102Z,77.50
2018-12-19T16:38:44.314Z,77.10
2018-12-19T16:41:13.498Z,77.60
2018-12-19T16:43:42.594Z,76.14
2018-12-19T16:46:12.114Z,76.46
2018-12-19T16:48:41.191Z,77.41
2018-12-19T16:51:10.282Z,77.87
2018-12-19T16:53:39.627Z,77.61
2018-12-19T16:56:08.802Z,78.45
2018-12-19T16:58:37.998Z,77.75
2018-12-19T17:01:07.326Z,78.59
2018-12-19T17:03:36.428Z,78.49
2018-12-19T17:06:05.606Z,78.53
2018-12-19T17:08:34.814Z,78.97
2018-12-19T17:11:04.090Z,77.18
2018-12-19T17:13:33.224Z,76.40
2018-12-19T17:16:02.488Z,75.86
2018-12-19T17:18:31.604Z,76.92
2018-12-19T17:21:00.770Z,77.24
2018-12-19T17:23:29.882Z,76.20
2018-12-19T17:25:58.957Z,76.87
2018-12-19T17:28:28.073Z,76.10
2018-12-19T17:30:57.194Z,76.47
2018-12-19T17:33:26.266Z,76.34
2018-12-19T17:35:55.457Z,76.93
2018-12-19T17:38:24.711Z,76.53
2018-12-19T17:40:53.857Z,76.64
2018-12-19T17:43:22.954Z,77.04
2018-12-19T17:45:52.075Z,76.20
2018-12-19T17:48:21.172Z,76.22
2018-12-19T17:50:50.370Z,76.64
2018-12-19T17:53:19.561Z,77.23
2018-12-19T17:55:48.636Z,77.53
2018-12-19T17:58:17.743Z,76.90
2018-12-19T18:00:47.029Z,77.06
2018-12-19T18:03:16.122Z,76.38
2018-12-19T18:05:45.296Z,76.13
2018-12-19T18:08:14.491Z,76.28
2018-12-19T18:10:43.683Z,76.03
2018-12-19T18:13:12.819Z,75.02
2018-12-19T18:15:41.915Z,74.96
2018-12-19T18:18:11.006Z,75.21
2018-12-19T18:20:40.122Z,75.15
2018-12-19T18:23:09.319Z,75.79
2018-12-19T18:25:38.516Z,75.21
2018-12-19T18:28:07.913Z,74.51
2018-12-19T18:30:37.009Z,74.95
2018-12-19T18:33:06.145Z,75.08
2018-12-19T18:35:35.228Z,75.13
2018-12-19T18:38:04.446Z,74.83
2018-12-19T18:40:33.569Z,75.65
2018-12-19T18:43:02.653Z,75.33
2018-12-19T18:45:31.734Z,76.28
2018-12-19T18:48:00.875Z,76.74
2018-12-19T18:50:29.970Z,76.69
2018-12-19T18:52:59.087Z,76.95
2018-12-19T18:55:28.285Z,77.85
2018-12-19T18:57:57.455Z,77.48
2018-12-19T19:00:34.732Z,78.15
2018-12-19T19:03:04.439Z,77.54
2018-12-19T19:05:33.679Z,76.52
2018-12-19T19:08:03.071Z,76.21
2018-12-19T19:10:32.205Z,76.32
2018-12-19T19:13:01.310Z,76.38
2018-12-19T19:15:30.591Z,75.78
2018-12-19T19:17:59.963Z,75.41
2018-12-19T19:20:29.139Z,75.04
2018-12-19T19:22:59.059Z,76.03
2018-12-19T19:25:28.263Z,75.50
2018-12-19T19:27:57.336Z,75.17
2018-12-19T19:30:26.635Z,75.89
2018-12-19T19:32:55.746Z,75.86
2018-12-19T19:35:24.944Z,75.47
2018-12-19T19:37:54.125Z,75.52
2018-12-19T19:40:23.247Z,76.32
2018-12-19T19:42:52.402Z,77.44
2018-12-19T19:45:21.484Z,78.20
2018-12-19T19:47:50.731Z,77.85
2018-12-19T19:50:19.831Z,78.53
2018-12-19T19:52:50.666Z,77.90
2018-12-19T19:55:19.907Z,77.21
2018-12-19T19:57:49.129Z,76.19
2018-12-19T20:00:22.382Z,76.87
2018-12-19T20:02:51.592Z,76.17
2018-12-19T20:05:20.677Z,76.08
2018-12-19T20:07:49.783Z,75.96
2018-12-19T20:10:18.853Z,75.93
2018-12-19T20:12:47.968Z,75.42
2018-12-19T20:15:17.099Z,75.38
2018-12-19T20:17:46.159Z,76.22
2018-12-19T20:20:16.533Z,76.46
2018-12-19T20:22:45.859Z,76.51
2018-12-19T20:25:14.944Z,76.82
2018-12-19T20:27:44.061Z,76.43
2018-12-19T20:30:13.303Z,76.74
2018-12-19T20:32:42.407Z,76.79
2018-12-19T20:35:11.703Z,78.17
2018-12-19T20:37:40.819Z,78.38
2018-12-19T20:40:09.914Z,78.33
2018-12-19T20:42:39.101Z,78.33
2018-12-19T20:45:08.202Z,77.84
2018-12-19T20:47:37.434Z,77.95
2018-12-19T20:50:07.128Z,77.67
2018-12-19T20:52:36.223Z,78.87
2018-12-19T20:55:06.118Z,79.39
2018-12-19T20:57:35.423Z,78.06
2018-12-19T21:00:05.966Z,78.95
2018-12-19T21:02:35.058Z,78.24
2018-12-19T21:05:04.389Z,78.68
2018-12-19T21:07:34.091Z,78.98
2018-12-19T21:10:03.646Z,79.19
2018-12-19T21:12:32.736Z,79.40
2018-12-19T21:15:02.023Z,79.70
2018-12-19T21:17:36.491Z,80.26
2018-12-19T21:20:06.313Z,79.24
2018-12-19T21:22:35.820Z,80.00
2018-12-19T21:25:05.235Z,80.27
2018-12-19T21:27:34.439Z,80.13
2018-12-19T21:30:04.029Z,80.00
2018-12-19T21:32:33.112Z,80.39
2018-12-19T21:35:02.207Z,79.98
2018-12-19T21:37:31.663Z,79.80
2018-12-19T21:40:00.841Z,79.81
2018-12-19T21:42:30.673Z,80.07
2018-12-19T21:44:59.993Z,80.45
2018-12-19T21:47:29.180Z,80.48
2018-12-19T21:49:58.600Z,79.87
2018-12-19T21:52:27.737Z,79.82
2018-12-19T21:54:56.923Z,80.36
2018-12-19T21:57:26.145Z,80.64
2018-12-19T21:59:55.390Z,80.37
2018-12-19T22:02:24.519Z,79.87
2018-12-19T22:04:53.771Z,81.49
2018-12-19T22:07:22.951Z,81.14
2018-12-19T22:09:52.130Z,81.22
2018-12-19T22:12:21.287Z,82.01
2018-12-19T22:14:50.370Z,83.02
2018-12-19T22:17:24.851Z,83.04
2018-12-19T22:19:54.128Z,82.39
2018-12-19T22:22:23.378Z,82.70
2018-12-19T22:24:52.580Z,82.90
2018-12-19T22:27:21.919Z,83.16
2018-12-19T22:29:51.145Z,83.44
2018-12-19T22:32:20.469Z,83.45
2018-12-19T22:34:49.613Z,83.85
2018-12-19T22:37:18.856Z,83.95
2018-12-19T22:39:48.106Z,84.17
2018-12-19T22:42:17.379Z,83.78
2018-12-19T22:44:46.550Z,83.88
2018-12-19T22:47:15.787Z,84.06
2018-12-19T22:49:44.941Z,84.52
2018-12-19T22:52:14.092Z,85.29
2018-12-19T22:54:43.323Z,84.71
2018-12-19T22:57:12.696Z,84.44
2018-12-19T22:59:42.015Z,84.88
2018-12-19T23:02:16.630Z,84.90
2018-12-19T23:04:45.908Z,85.73
2018-12-19T23:07:15.106Z,85.31
2018-12-19T23:09:44.294Z,85.66
2018-12-19T23:12:13.602Z,85.83
2018-12-19T23:14:42.834Z,85.87
2018-12-19T23:17:17.409Z,86.27
2018-12-19T23:19:47.034Z,86.46
2018-12-19T23:22:16.314Z,86.11
2018-12-19T23:24:45.613Z,85.79
2018-12-19T23:27:14.839Z,85.59
2018-12-19T23:29:43.954Z,85.34
2018-12-19T23:32:15.103Z,85.37
2018-12-19T23:34:44.338Z,85.97
2018-12-19T23:37:13.580Z,85.68
2018-12-19T23:39:42.786Z,86.35
2018-12-19T23:42:11.966Z,85.64
2018-12-19T23:44:41.038Z,85.69
2018-12-19T23:47:10.385Z,85.73
2018-12-19T23:49:39.490Z,85.76
2018-12-19T23:52:08.711Z,85.57
2018-12-19T23:54:38.073Z,85.30
2018-12-19T23:57:07.339Z,85.81
2018-12-19T23:59:36.519Z,86.35
